sensor_id;sensor_type;location;lat;lon;timestamp;P1;durP1;ratioP1;P2;durP2;ratioP2
24325;SDS011;12448;45.532;5.290;2022-08-19T00:05:04;9.73;;;7.88;;
24325;SDS011;12448;45.532;5.290;2022-08-19T00:15:17;9.02;;;8.13;;
24325;SDS011;12448;45.532;5.290;2022-08-19T00:18:37;10.25;;;7.07;;
24325;SDS011;12448;45.532;5.290;2022-08-19T00:21:41;8.10;;;7.30;;
24325;SDS011;12448;45.532;5.290;2022-08-19T00:24:20;7.50;;;6.70;;
24325;SDS011;12448;45.532;5.290;2022-08-19T00:27:25;7.97;;;7.15;;
24325;SDS011;12448;45.532;5.290;2022-08-19T00:30:30;8.25;;;7.45;;
24325;SDS011;12448;45.532;5.290;2022-08-19T00:33:25;8.95;;;7.40;;
24325;SDS011;12448;45.532;5.290;2022-08-19T00:39:34;8.88;;;7.60;;
24325;SDS011;12448;45.532;5.290;2022-08-19T00:42:24;8.38;;;7.53;;
24325;SDS011;12448;45.532;5.290;2022-08-19T00:45:23;9.35;;;7.65;;
24325;SDS011;12448;45.532;5.290;2022-08-19T00:48:22;8.55;;;7.75;;
24325;SDS011;12448;45.532;5.290;2022-08-19T00:51:11;9.52;;;8.55;;
24325;SDS011;12448;45.532;5.290;2022-08-19T01:07:39;9.50;;;8.53;;
24325;SDS011;12448;45.532;5.290;2022-08-19T01:11:03;11.30;;;8.77;;
24325;SDS011;12448;45.532;5.290;2022-08-19T01:17:02;12.48;;;10.38;;
24325;SDS011;12448;45.532;5.290;2022-08-19T01:23:01;12.85;;;11.57;;
24325;SDS011;12448;45.532;5.290;2022-08-19T01:26:00;13.10;;;11.68;;
24325;SDS011;12448;45.532;5.290;2022-08-19T01:29:10;10.70;;;8.70;;
24325;SDS011;12448;45.532;5.290;2022-08-19T01:31:52;12.15;;;10.20;;
24325;SDS011;12448;45.532;5.290;2022-08-19T01:34:31;11.52;;;9.15;;
24325;SDS011;12448;45.532;5.290;2022-08-19T01:37:06;10.00;;;8.37;;
24325;SDS011;12448;45.532;5.290;2022-08-19T01:39:56;10.75;;;8.32;;
24325;SDS011;12448;45.532;5.290;2022-08-19T01:42:28;11.77;;;8.82;;
24325;SDS011;12448;45.532;5.290;2022-08-19T01:45:05;9.82;;;8.82;;
24325;SDS011;12448;45.532;5.290;2022-08-19T01:47:44;13.80;;;9.70;;
24325;SDS011;12448;45.532;5.290;2022-08-19T01:53:20;9.73;;;7.03;;
24325;SDS011;12448;45.532;5.290;2022-08-19T01:56:11;10.95;;;8.48;;
24325;SDS011;12448;45.532;5.290;2022-08-19T01:59:08;8.77;;;7.88;;
24325;SDS011;12448;45.532;5.290;2022-08-19T02:01:58;9.25;;;8.35;;
24325;SDS011;12448;45.532;5.290;2022-08-19T02:04:58;11.35;;;8.40;;
24325;SDS011;12448;45.532;5.290;2022-08-19T02:10:48;9.20;;;8.27;;
24325;SDS011;12448;45.532;5.290;2022-08-19T02:21:03;10.77;;;8.45;;
24325;SDS011;12448;45.532;5.290;2022-08-19T02:23:51;10.10;;;7.90;;
24325;SDS011;12448;45.532;5.290;2022-08-19T02:27:28;8.63;;;7.82;;
24325;SDS011;12448;45.532;5.290;2022-08-19T02:32:59;10.57;;;8.93;;
24325;SDS011;12448;45.532;5.290;2022-08-19T02:35:36;12.40;;;9.60;;
24325;SDS011;12448;45.532;5.290;2022-08-19T02:39:20;11.05;;;9.20;;
24325;SDS011;12448;45.532;5.290;2022-08-19T02:41:56;11.68;;;9.50;;
24325;SDS011;12448;45.532;5.290;2022-08-19T02:44:28;12.25;;;10.50;;
24325;SDS011;12448;45.532;5.290;2022-08-19T02:47:17;11.60;;;10.40;;
24325;SDS011;12448;45.532;5.290;2022-08-19T02:50:06;11.85;;;9.93;;
24325;SDS011;12448;45.532;5.290;2022-08-19T02:53:22;11.48;;;10.18;;
24325;SDS011;12448;45.532;5.290;2022-08-19T02:59:18;11.35;;;9.98;;
24325;SDS011;12448;45.532;5.290;2022-08-19T03:22:53;14.05;;;10.20;;
24325;SDS011;12448;45.532;5.290;2022-08-19T03:25:44;13.07;;;10.55;;
24325;SDS011;12448;45.532;5.290;2022-08-19T03:38:10;13.48;;;12.18;;
24325;SDS011;12448;45.532;5.290;2022-08-19T03:44:46;12.50;;;9.93;;
24325;SDS011;12448;45.532;5.290;2022-08-19T03:50:14;14.38;;;9.73;;
24325;SDS011;12448;45.532;5.290;2022-08-19T03:53:48;11.75;;;10.23;;
24325;SDS011;12448;45.532;5.290;2022-08-19T03:59:30;10.63;;;9.52;;
24325;SDS011;12448;45.532;5.290;2022-08-19T04:02:28;15.25;;;10.30;;
24325;SDS011;12448;45.532;5.290;2022-08-19T04:05:39;12.27;;;9.88;;
24325;SDS011;12448;45.532;5.290;2022-08-19T04:15:24;13.07;;;9.90;;
24325;SDS011;12448;45.532;5.290;2022-08-19T04:18:44;14.20;;;10.27;;
24325;SDS011;12448;45.532;5.290;2022-08-19T04:28:39;11.82;;;9.73;;
24325;SDS011;12448;45.532;5.290;2022-08-19T04:42:14;12.90;;;10.13;;
24325;SDS011;12448;45.532;5.290;2022-08-19T04:48:46;13.85;;;10.45;;
24325;SDS011;12448;45.532;5.290;2022-08-19T04:51:15;11.93;;;10.50;;
24325;SDS011;12448;45.532;5.290;2022-08-19T04:57:21;12.85;;;10.43;;
24325;SDS011;12448;45.532;5.290;2022-08-19T05:04:03;14.95;;;10.88;;
24325;SDS011;12448;45.532;5.290;2022-08-19T06:01:48;20.95;;;11.70;;
24325;SDS011;12448;45.532;5.290;2022-08-19T06:18:00;13.48;;;10.43;;
24325;SDS011;12448;45.532;5.290;2022-08-19T06:24:40;11.25;;;9.82;;
24325;SDS011;12448;45.532;5.290;2022-08-19T06:27:39;12.55;;;9.70;;
24325;SDS011;12448;45.532;5.290;2022-08-19T06:30:33;9.93;;;8.95;;
24325;SDS011;12448;45.532;5.290;2022-08-19T06:33:21;12.65;;;9.98;;
24325;SDS011;12448;45.532;5.290;2022-08-19T06:46:33;11.45;;;9.45;;
24325;SDS011;12448;45.532;5.290;2022-08-19T07:49:55;13.82;;;11.70;;
24325;SDS011;12448;45.532;5.290;2022-08-19T07:57:00;15.57;;;13.07;;
24325;SDS011;12448;45.532;5.290;2022-08-19T08:04:02;17.35;;;12.63;;
24325;SDS011;12448;45.532;5.290;2022-08-19T08:07:07;16.20;;;13.07;;
24325;SDS011;12448;45.532;5.290;2022-08-19T08:10:40;15.35;;;13.57;;
24325;SDS011;12448;45.532;5.290;2022-08-19T08:17:54;19.98;;;14.23;;
24325;SDS011;12448;45.532;5.290;2022-08-19T08:24:56;21.92;;;15.75;;
24325;SDS011;12448;45.532;5.290;2022-08-19T08:59:40;28.73;;;17.85;;
24325;SDS011;12448;45.532;5.290;2022-08-19T10:12:24;27.27;;;20.38;;
24325;SDS011;12448;45.532;5.290;2022-08-19T10:47:43;28.42;;;21.88;;
24325;SDS011;12448;45.532;5.290;2022-08-19T11:11:18;25.98;;;19.52;;
24325;SDS011;12448;45.532;5.290;2022-08-19T12:21:15;24.10;;;18.70;;
24325;SDS011;12448;45.532;5.290;2022-08-19T12:23:42;23.42;;;18.67;;
24325;SDS011;12448;45.532;5.290;2022-08-19T12:26:10;22.67;;;18.38;;
24325;SDS011;12448;45.532;5.290;2022-08-19T12:28:37;25.30;;;19.38;;
24325;SDS011;12448;45.532;5.290;2022-08-19T12:31:03;23.23;;;19.10;;
24325;SDS011;12448;45.532;5.290;2022-08-19T12:33:29;23.27;;;17.67;;
24325;SDS011;12448;45.532;5.290;2022-08-19T12:35:59;25.73;;;18.40;;
24325;SDS011;12448;45.532;5.290;2022-08-19T12:38:28;20.70;;;17.00;;
24325;SDS011;12448;45.532;5.290;2022-08-19T12:40:53;24.08;;;18.80;;
24325;SDS011;12448;45.532;5.290;2022-08-19T12:43:19;24.42;;;18.67;;
24325;SDS011;12448;45.532;5.290;2022-08-19T12:45:45;23.23;;;18.45;;
24325;SDS011;12448;45.532;5.290;2022-08-19T12:48:11;24.42;;;17.85;;
24325;SDS011;12448;45.532;5.290;2022-08-19T12:50:40;26.33;;;18.17;;
24325;SDS011;12448;45.532;5.290;2022-08-19T12:53:07;29.90;;;18.60;;
24325;SDS011;12448;45.532;5.290;2022-08-19T12:55:32;23.98;;;18.33;;
24325;SDS011;12448;45.532;5.290;2022-08-19T12:57:58;19.55;;;17.35;;
24325;SDS011;12448;45.532;5.290;2022-08-19T13:00:26;22.55;;;17.35;;
24325;SDS011;12448;45.532;5.290;2022-08-19T13:02:52;24.20;;;17.30;;
24325;SDS011;12448;45.532;5.290;2022-08-19T13:05:23;25.45;;;18.20;;
24325;SDS011;12448;45.532;5.290;2022-08-19T13:07:51;20.23;;;16.40;;
24325;SDS011;12448;45.532;5.290;2022-08-19T13:10:21;21.60;;;17.65;;
24325;SDS011;12448;45.532;5.290;2022-08-19T13:12:48;22.52;;;16.50;;
24325;SDS011;12448;45.532;5.290;2022-08-19T13:15:15;23.10;;;16.52;;
24325;SDS011;12448;45.532;5.290;2022-08-19T13:17:46;20.55;;;16.23;;
24325;SDS011;12448;45.532;5.290;2022-08-19T13:20:16;19.42;;;15.57;;
24325;SDS011;12448;45.532;5.290;2022-08-19T13:22:44;21.10;;;16.95;;
24325;SDS011;12448;45.532;5.290;2022-08-19T13:25:13;23.17;;;16.60;;
24325;SDS011;12448;45.532;5.290;2022-08-19T13:27:42;19.40;;;15.82;;
24325;SDS011;12448;45.532;5.290;2022-08-19T13:30:12;20.17;;;15.85;;
24325;SDS011;12448;45.532;5.290;2022-08-19T13:32:59;18.98;;;16.10;;
24325;SDS011;12448;45.532;5.290;2022-08-19T13:35:57;19.80;;;15.80;;
24325;SDS011;12448;45.532;5.290;2022-08-19T13:38:30;18.55;;;14.95;;
24325;SDS011;12448;45.532;5.290;2022-08-19T13:41:03;18.67;;;14.85;;
24325;SDS011;12448;45.532;5.290;2022-08-19T13:43:41;19.40;;;16.13;;
24325;SDS011;12448;45.532;5.290;2022-08-19T13:46:10;23.05;;;14.77;;
24325;SDS011;12448;45.532;5.290;2022-08-19T13:48:42;20.42;;;14.63;;
24325;SDS011;12448;45.532;5.290;2022-08-19T13:51:08;17.70;;;14.43;;
24325;SDS011;12448;45.532;5.290;2022-08-19T13:53:41;19.10;;;14.73;;
24325;SDS011;12448;45.532;5.290;2022-08-19T13:56:10;17.35;;;14.95;;
24325;SDS011;12448;45.532;5.290;2022-08-19T14:05:44;16.33;;;14.50;;
24325;SDS011;12448;45.532;5.290;2022-08-19T14:08:11;19.70;;;13.88;;
24325;SDS011;12448;45.532;5.290;2022-08-19T14:13:38;18.08;;;13.38;;
24325;SDS011;12448;45.532;5.290;2022-08-19T14:16:11;15.98;;;12.25;;
24325;SDS011;12448;45.532;5.290;2022-08-19T14:18:41;15.30;;;12.50;;
24325;SDS011;12448;45.532;5.290;2022-08-19T14:21:08;15.57;;;11.75;;
24325;SDS011;12448;45.532;5.290;2022-08-19T14:23:45;16.45;;;11.43;;
24325;SDS011;12448;45.532;5.290;2022-08-19T14:26:15;13.02;;;11.63;;
24325;SDS011;12448;45.532;5.290;2022-08-19T14:29:11;13.10;;;10.63;;
24325;SDS011;12448;45.532;5.290;2022-08-19T14:32:17;18.95;;;10.80;;
24325;SDS011;12448;45.532;5.290;2022-08-19T14:34:43;16.95;;;10.63;;
24325;SDS011;12448;45.532;5.290;2022-08-19T14:37:12;16.42;;;10.68;;
24325;SDS011;12448;45.532;5.290;2022-08-19T14:39:42;11.93;;;9.45;;
24325;SDS011;12448;45.532;5.290;2022-08-19T14:42:10;13.05;;;9.52;;
24325;SDS011;12448;45.532;5.290;2022-08-19T14:44:36;11.85;;;8.63;;
24325;SDS011;12448;45.532;5.290;2022-08-19T14:47:02;13.32;;;9.93;;
24325;SDS011;12448;45.532;5.290;2022-08-19T14:49:28;14.88;;;9.95;;
24325;SDS011;12448;45.532;5.290;2022-08-19T14:51:53;10.07;;;8.98;;
24325;SDS011;12448;45.532;5.290;2022-08-19T14:54:19;11.35;;;8.63;;
24325;SDS011;12448;45.532;5.290;2022-08-19T14:56:46;16.30;;;8.63;;
24325;SDS011;12448;45.532;5.290;2022-08-19T14:59:12;14.05;;;9.63;;
24325;SDS011;12448;45.532;5.290;2022-08-19T15:01:38;11.23;;;8.07;;
24325;SDS011;12448;45.532;5.290;2022-08-19T15:04:03;12.70;;;8.98;;
24325;SDS011;12448;45.532;5.290;2022-08-19T15:06:29;8.27;;;7.32;;
24325;SDS011;12448;45.532;5.290;2022-08-19T15:08:56;9.80;;;7.78;;
24325;SDS011;12448;45.532;5.290;2022-08-19T15:11:23;11.05;;;8.35;;
24325;SDS011;12448;45.532;5.290;2022-08-19T15:13:52;9.23;;;6.90;;
24325;SDS011;12448;45.532;5.290;2022-08-19T15:16:22;7.75;;;6.70;;
24325;SDS011;12448;45.532;5.290;2022-08-19T15:18:51;10.23;;;7.28;;
24325;SDS011;12448;45.532;5.290;2022-08-19T15:21:20;8.93;;;6.75;;
24325;SDS011;12448;45.532;5.290;2022-08-19T15:23:48;11.27;;;7.15;;
24325;SDS011;12448;45.532;5.290;2022-08-19T15:26:14;10.50;;;7.05;;
24325;SDS011;12448;45.532;5.290;2022-08-19T15:28:40;8.82;;;6.47;;
24325;SDS011;12448;45.532;5.290;2022-08-19T15:31:06;7.43;;;6.15;;
24325;SDS011;12448;45.532;5.290;2022-08-19T15:33:33;6.78;;;5.55;;
24325;SDS011;12448;45.532;5.290;2022-08-19T15:36:02;6.65;;;5.38;;
24325;SDS011;12448;45.532;5.290;2022-08-19T15:38:31;6.30;;;5.63;;
24325;SDS011;12448;45.532;5.290;2022-08-19T15:40:58;8.55;;;5.28;;
24325;SDS011;12448;45.532;5.290;2022-08-19T15:43:45;7.72;;;5.35;;
24325;SDS011;12448;45.532;5.290;2022-08-19T15:46:11;7.43;;;5.57;;
24325;SDS011;12448;45.532;5.290;2022-08-19T15:48:37;9.55;;;4.97;;
24325;SDS011;12448;45.532;5.290;2022-08-19T15:51:03;8.00;;;5.38;;
24325;SDS011;12448;45.532;5.290;2022-08-19T15:53:28;8.02;;;5.10;;
24325;SDS011;12448;45.532;5.290;2022-08-19T15:55:54;6.18;;;4.72;;
24325;SDS011;12448;45.532;5.290;2022-08-19T15:58:20;6.53;;;5.47;;
24325;SDS011;12448;45.532;5.290;2022-08-19T16:01:05;6.32;;;5.18;;
24325;SDS011;12448;45.532;5.290;2022-08-19T16:03:51;8.95;;;4.93;;
24325;SDS011;12448;45.532;5.290;2022-08-19T16:06:36;8.43;;;4.80;;
24325;SDS011;12448;45.532;5.290;2022-08-19T16:09:03;6.88;;;4.55;;
24325;SDS011;12448;45.532;5.290;2022-08-19T16:11:30;7.70;;;4.88;;
24325;SDS011;12448;45.532;5.290;2022-08-19T16:13:57;7.68;;;5.35;;
24325;SDS011;12448;45.532;5.290;2022-08-19T16:16:25;7.20;;;5.25;;
24325;SDS011;12448;45.532;5.290;2022-08-19T16:18:56;8.90;;;5.10;;
24325;SDS011;12448;45.532;5.290;2022-08-19T16:21:23;6.10;;;4.90;;
24325;SDS011;12448;45.532;5.290;2022-08-19T16:23:51;6.78;;;4.75;;
24325;SDS011;12448;45.532;5.290;2022-08-19T16:26:18;6.03;;;4.72;;
24325;SDS011;12448;45.532;5.290;2022-08-19T16:28:44;7.97;;;4.70;;
24325;SDS011;12448;45.532;5.290;2022-08-19T16:31:11;5.95;;;4.25;;
24325;SDS011;12448;45.532;5.290;2022-08-19T16:33:38;6.63;;;4.78;;
24325;SDS011;12448;45.532;5.290;2022-08-19T16:36:04;5.68;;;4.65;;
24325;SDS011;12448;45.532;5.290;2022-08-19T16:38:31;6.30;;;4.82;;
24325;SDS011;12448;45.532;5.290;2022-08-19T16:40:58;6.68;;;4.90;;
24325;SDS011;12448;45.532;5.290;2022-08-19T16:43:25;8.35;;;4.78;;
24325;SDS011;12448;45.532;5.290;2022-08-19T16:45:52;5.90;;;5.20;;
24325;SDS011;12448;45.532;5.290;2022-08-19T16:48:19;8.10;;;4.82;;
24325;SDS011;12448;45.532;5.290;2022-08-19T16:50:50;9.98;;;5.18;;
24325;SDS011;12448;45.532;5.290;2022-08-19T16:53:16;7.50;;;5.63;;
24325;SDS011;12448;45.532;5.290;2022-08-19T16:55:44;7.28;;;5.25;;
24325;SDS011;12448;45.532;5.290;2022-08-19T16:58:18;8.93;;;5.30;;
24325;SDS011;12448;45.532;5.290;2022-08-19T17:00:46;7.47;;;4.82;;
24325;SDS011;12448;45.532;5.290;2022-08-19T17:03:13;7.25;;;4.65;;
24325;SDS011;12448;45.532;5.290;2022-08-19T17:05:42;5.82;;;4.65;;
24325;SDS011;12448;45.532;5.290;2022-08-19T17:08:09;8.48;;;4.85;;
24325;SDS011;12448;45.532;5.290;2022-08-19T17:10:35;6.93;;;4.95;;
24325;SDS011;12448;45.532;5.290;2022-08-19T17:13:02;6.78;;;4.70;;
24325;SDS011;12448;45.532;5.290;2022-08-19T17:15:28;5.65;;;4.95;;
24325;SDS011;12448;45.532;5.290;2022-08-19T17:17:59;6.97;;;4.38;;
24325;SDS011;12448;45.532;5.290;2022-08-19T17:20:27;5.28;;;4.70;;
24325;SDS011;12448;45.532;5.290;2022-08-19T17:22:54;7.85;;;5.00;;
24325;SDS011;12448;45.532;5.290;2022-08-19T17:25:21;5.72;;;5.13;;
24325;SDS011;12448;45.532;5.290;2022-08-19T17:27:48;7.82;;;4.55;;
24325;SDS011;12448;45.532;5.290;2022-08-19T17:30:15;8.07;;;5.15;;
24325;SDS011;12448;45.532;5.290;2022-08-19T17:32:42;9.23;;;4.70;;
24325;SDS011;12448;45.532;5.290;2022-08-19T17:35:08;6.03;;;5.03;;
24325;SDS011;12448;45.532;5.290;2022-08-19T17:37:34;9.57;;;4.90;;
24325;SDS011;12448;45.532;5.290;2022-08-19T17:40:02;6.60;;;5.10;;
24325;SDS011;12448;45.532;5.290;2022-08-19T17:42:30;10.40;;;5.20;;
24325;SDS011;12448;45.532;5.290;2022-08-19T17:44:55;7.20;;;5.00;;
24325;SDS011;12448;45.532;5.290;2022-08-19T17:47:24;7.82;;;4.82;;
24325;SDS011;12448;45.532;5.290;2022-08-19T17:49:54;9.07;;;4.88;;
24325;SDS011;12448;45.532;5.290;2022-08-19T17:52:21;6.95;;;5.22;;
24325;SDS011;12448;45.532;5.290;2022-08-19T17:54:47;6.05;;;5.38;;
24325;SDS011;12448;45.532;5.290;2022-08-19T17:57:13;6.45;;;5.82;;
24325;SDS011;12448;45.532;5.290;2022-08-19T17:59:39;8.05;;;5.22;;
24325;SDS011;12448;45.532;5.290;2022-08-19T18:02:05;6.38;;;5.07;;
24325;SDS011;12448;45.532;5.290;2022-08-19T18:04:32;9.38;;;6.13;;
24325;SDS011;12448;45.532;5.290;2022-08-19T18:06:58;8.05;;;5.47;;
24325;SDS011;12448;45.532;5.290;2022-08-19T18:09:28;13.32;;;5.72;;
24325;SDS011;12448;45.532;5.290;2022-08-19T18:11:56;9.35;;;5.50;;
24325;SDS011;12448;45.532;5.290;2022-08-19T18:14:23;7.75;;;5.50;;
24325;SDS011;12448;45.532;5.290;2022-08-19T18:16:52;8.35;;;6.07;;
24325;SDS011;12448;45.532;5.290;2022-08-19T18:19:20;7.13;;;5.55;;
24325;SDS011;12448;45.532;5.290;2022-08-19T18:21:46;6.38;;;5.53;;
24325;SDS011;12448;45.532;5.290;2022-08-19T18:24:12;7.38;;;6.00;;
24325;SDS011;12448;45.532;5.290;2022-08-19T18:26:37;6.47;;;5.75;;
24325;SDS011;12448;45.532;5.290;2022-08-19T18:29:04;8.48;;;6.30;;
24325;SDS011;12448;45.532;5.290;2022-08-19T18:31:30;12.93;;;6.05;;
24325;SDS011;12448;45.532;5.290;2022-08-19T18:33:56;11.45;;;5.55;;
24325;SDS011;12448;45.532;5.290;2022-08-19T18:36:22;6.45;;;5.60;;
24325;SDS011;12448;45.532;5.290;2022-08-19T18:38:47;5.78;;;5.18;;
24325;SDS011;12448;45.532;5.290;2022-08-19T18:41:31;9.23;;;5.93;;
24325;SDS011;12448;45.532;5.290;2022-08-19T18:44:15;6.28;;;5.68;;
24325;SDS011;12448;45.532;5.290;2022-08-19T18:46:59;7.55;;;5.78;;
24325;SDS011;12448;45.532;5.290;2022-08-19T18:49:44;6.80;;;5.85;;
24325;SDS011;12448;45.532;5.290;2022-08-19T18:52:10;6.25;;;5.60;;
24325;SDS011;12448;45.532;5.290;2022-08-19T18:54:35;8.35;;;6.05;;
24325;SDS011;12448;45.532;5.290;2022-08-19T18:57:01;9.73;;;6.13;;
24325;SDS011;12448;45.532;5.290;2022-08-19T18:59:32;8.15;;;5.85;;
24325;SDS011;12448;45.532;5.290;2022-08-19T19:01:58;8.40;;;6.05;;
24325;SDS011;12448;45.532;5.290;2022-08-19T19:04:29;10.48;;;6.38;;
24325;SDS011;12448;45.532;5.290;2022-08-19T19:06:57;8.60;;;6.35;;
24325;SDS011;12448;45.532;5.290;2022-08-19T19:09:24;7.75;;;5.85;;
24325;SDS011;12448;45.532;5.290;2022-08-19T19:11:52;8.55;;;6.10;;
24325;SDS011;12448;45.532;5.290;2022-08-19T19:14:27;9.57;;;6.20;;
24325;SDS011;12448;45.532;5.290;2022-08-19T19:17:00;9.73;;;6.78;;
24325;SDS011;12448;45.532;5.290;2022-08-19T19:19:29;13.37;;;6.10;;
24325;SDS011;12448;45.532;5.290;2022-08-19T19:21:55;7.10;;;6.40;;
24325;SDS011;12448;45.532;5.290;2022-08-19T19:24:26;7.63;;;6.55;;
24325;SDS011;12448;45.532;5.290;2022-08-19T19:26:55;10.10;;;6.50;;
24325;SDS011;12448;45.532;5.290;2022-08-19T19:29:22;9.25;;;6.70;;
24325;SDS011;12448;45.532;5.290;2022-08-19T19:31:48;11.73;;;6.88;;
24325;SDS011;12448;45.532;5.290;2022-08-19T19:34:17;8.20;;;6.55;;
24325;SDS011;12448;45.532;5.290;2022-08-19T19:36:45;9.00;;;5.95;;
24325;SDS011;12448;45.532;5.290;2022-08-19T19:39:12;8.68;;;6.28;;
24325;SDS011;12448;45.532;5.290;2022-08-19T19:41:38;12.68;;;6.63;;
24325;SDS011;12448;45.532;5.290;2022-08-19T19:44:05;7.88;;;5.88;;
24325;SDS011;12448;45.532;5.290;2022-08-19T19:46:33;6.35;;;5.20;;
24325;SDS011;12448;45.532;5.290;2022-08-19T19:48:59;7.32;;;6.15;;
24325;SDS011;12448;45.532;5.290;2022-08-19T19:51:26;7.32;;;6.10;;
24325;SDS011;12448;45.532;5.290;2022-08-19T19:53:52;6.50;;;5.65;;
24325;SDS011;12448;45.532;5.290;2022-08-19T19:56:19;7.60;;;5.60;;
24325;SDS011;12448;45.532;5.290;2022-08-19T19:58:46;6.10;;;5.28;;
24325;SDS011;12448;45.532;5.290;2022-08-19T20:01:14;7.47;;;5.53;;
24325;SDS011;12448;45.532;5.290;2022-08-19T20:03:42;6.80;;;5.50;;
24325;SDS011;12448;45.532;5.290;2022-08-19T20:06:09;5.78;;;5.18;;
24325;SDS011;12448;45.532;5.290;2022-08-19T20:08:37;7.18;;;4.97;;
24325;SDS011;12448;45.532;5.290;2022-08-19T20:13:56;5.35;;;4.60;;
24325;SDS011;12448;45.532;5.290;2022-08-19T20:16:25;6.28;;;5.00;;
24325;SDS011;12448;45.532;5.290;2022-08-19T20:18:52;5.40;;;4.75;;
24325;SDS011;12448;45.532;5.290;2022-08-19T20:21:19;6.63;;;4.32;;
24325;SDS011;12448;45.532;5.290;2022-08-19T20:23:45;7.32;;;4.55;;
24325;SDS011;12448;45.532;5.290;2022-08-19T20:26:10;7.30;;;5.05;;
24325;SDS011;12448;45.532;5.290;2022-08-19T20:28:36;5.07;;;4.25;;
24325;SDS011;12448;45.532;5.290;2022-08-19T20:31:02;5.88;;;4.03;;
24325;SDS011;12448;45.532;5.290;2022-08-19T20:33:27;7.07;;;3.83;;
24325;SDS011;12448;45.532;5.290;2022-08-19T20:35:54;4.25;;;3.85;;
24325;SDS011;12448;45.532;5.290;2022-08-19T20:38:20;4.38;;;3.90;;
24325;SDS011;12448;45.532;5.290;2022-08-19T20:40:47;4.78;;;3.70;;
24325;SDS011;12448;45.532;5.290;2022-08-19T20:43:12;4.05;;;3.65;;
24325;SDS011;12448;45.532;5.290;2022-08-19T20:45:39;8.32;;;4.45;;
24325;SDS011;12448;45.532;5.290;2022-08-19T20:48:06;5.70;;;3.63;;
24325;SDS011;12448;45.532;5.290;2022-08-19T20:50:33;6.47;;;3.90;;
24325;SDS011;12448;45.532;5.290;2022-08-19T20:53:00;5.43;;;4.07;;
24325;SDS011;12448;45.532;5.290;2022-08-19T20:55:32;4.35;;;3.95;;
24325;SDS011;12448;45.532;5.290;2022-08-19T20:57:59;6.72;;;4.60;;
24325;SDS011;12448;45.532;5.290;2022-08-19T21:00:24;6.50;;;4.50;;
24325;SDS011;12448;45.532;5.290;2022-08-19T21:02:50;9.93;;;4.57;;
24325;SDS011;12448;45.532;5.290;2022-08-19T21:05:16;5.07;;;4.30;;
24325;SDS011;12448;45.532;5.290;2022-08-19T21:07:41;5.72;;;4.53;;
24325;SDS011;12448;45.532;5.290;2022-08-19T21:10:07;11.80;;;4.32;;
24325;SDS011;12448;45.532;5.290;2022-08-19T21:12:33;5.53;;;4.60;;
24325;SDS011;12448;45.532;5.290;2022-08-19T21:14:59;5.75;;;4.28;;
24325;SDS011;12448;45.532;5.290;2022-08-19T21:17:25;5.72;;;4.30;;
24325;SDS011;12448;45.532;5.290;2022-08-19T21:19:50;4.60;;;3.55;;
24325;SDS011;12448;45.532;5.290;2022-08-19T21:22:16;4.47;;;4.07;;
24325;SDS011;12448;45.532;5.290;2022-08-19T21:24:41;6.57;;;4.20;;
24325;SDS011;12448;45.532;5.290;2022-08-19T21:27:07;6.97;;;4.53;;
24325;SDS011;12448;45.532;5.290;2022-08-19T21:29:33;7.72;;;4.28;;
24325;SDS011;12448;45.532;5.290;2022-08-19T21:32:02;4.15;;;3.75;;
24325;SDS011;12448;45.532;5.290;2022-08-19T21:34:28;5.57;;;4.03;;
24325;SDS011;12448;45.532;5.290;2022-08-19T21:36:54;7.25;;;3.65;;
24325;SDS011;12448;45.532;5.290;2022-08-19T21:39:19;4.43;;;3.95;;
24325;SDS011;12448;45.532;5.290;2022-08-19T21:41:45;6.53;;;4.10;;
24325;SDS011;12448;45.532;5.290;2022-08-19T21:44:11;6.97;;;4.10;;
24325;SDS011;12448;45.532;5.290;2022-08-19T21:46:37;9.95;;;4.55;;
24325;SDS011;12448;45.532;5.290;2022-08-19T21:49:02;6.50;;;4.28;;
24325;SDS011;12448;45.532;5.290;2022-08-19T21:51:29;11.25;;;4.30;;
24325;SDS011;12448;45.532;5.290;2022-08-19T21:53:55;6.05;;;4.13;;
24325;SDS011;12448;45.532;5.290;2022-08-19T21:56:21;4.80;;;4.00;;
24325;SDS011;12448;45.532;5.290;2022-08-19T21:58:48;3.67;;;3.35;;
24325;SDS011;12448;45.532;5.290;2022-08-19T22:01:35;8.32;;;4.18;;
24325;SDS011;12448;45.532;5.290;2022-08-19T22:04:01;4.55;;;3.72;;
24325;SDS011;12448;45.532;5.290;2022-08-19T22:06:26;5.07;;;3.50;;
24325;SDS011;12448;45.532;5.290;2022-08-19T22:08:52;5.85;;;3.65;;
24325;SDS011;12448;45.532;5.290;2022-08-19T22:11:21;7.50;;;4.00;;
24325;SDS011;12448;45.532;5.290;2022-08-19T22:13:48;4.78;;;3.08;;
24325;SDS011;12448;45.532;5.290;2022-08-19T22:16:18;4.13;;;3.42;;
24325;SDS011;12448;45.532;5.290;2022-08-19T22:18:45;7.93;;;3.83;;
24325;SDS011;12448;45.532;5.290;2022-08-19T22:21:12;5.55;;;3.20;;
24325;SDS011;12448;45.532;5.290;2022-08-19T22:23:41;4.57;;;3.65;;
24325;SDS011;12448;45.532;5.290;2022-08-19T22:26:08;4.55;;;3.53;;
24325;SDS011;12448;45.532;5.290;2022-08-19T22:28:35;9.40;;;3.80;;
24325;SDS011;12448;45.532;5.290;2022-08-19T22:31:01;5.45;;;3.55;;
24325;SDS011;12448;45.532;5.290;2022-08-19T22:33:27;5.95;;;3.03;;
24325;SDS011;12448;45.532;5.290;2022-08-19T22:35:54;6.47;;;3.55;;
24325;SDS011;12448;45.532;5.290;2022-08-19T22:38:20;7.53;;;3.33;;
24325;SDS011;12448;45.532;5.290;2022-08-19T22:40:47;3.40;;;2.90;;
24325;SDS011;12448;45.532;5.290;2022-08-19T22:45:48;6.25;;;3.58;;
24325;SDS011;12448;45.532;5.290;2022-08-19T22:48:16;4.63;;;2.90;;
24325;SDS011;12448;45.532;5.290;2022-08-19T22:50:43;5.03;;;3.40;;
24325;SDS011;12448;45.532;5.290;2022-08-19T22:53:28;5.20;;;3.20;;
24325;SDS011;12448;45.532;5.290;2022-08-19T22:55:56;4.80;;;3.40;;
24325;SDS011;12448;45.532;5.290;2022-08-19T22:58:22;4.70;;;3.35;;
24325;SDS011;12448;45.532;5.290;2022-08-19T23:00:48;3.97;;;3.33;;
24325;SDS011;12448;45.532;5.290;2022-08-19T23:03:13;4.72;;;3.15;;
24325;SDS011;12448;45.532;5.290;2022-08-19T23:05:39;7.90;;;3.00;;
24325;SDS011;12448;45.532;5.290;2022-08-19T23:08:04;5.07;;;2.92;;
24325;SDS011;12448;45.532;5.290;2022-08-19T23:10:30;4.90;;;3.08;;
24325;SDS011;12448;45.532;5.290;2022-08-19T23:12:56;4.82;;;3.30;;
24325;SDS011;12448;45.532;5.290;2022-08-19T23:15:27;3.60;;;2.95;;
24325;SDS011;12448;45.532;5.290;2022-08-19T23:17:55;5.38;;;3.05;;
24325;SDS011;12448;45.532;5.290;2022-08-19T23:20:27;4.28;;;3.05;;
24325;SDS011;12448;45.532;5.290;2022-08-19T23:23:00;4.20;;;3.13;;
24325;SDS011;12448;45.532;5.290;2022-08-19T23:25:29;4.00;;;3.10;;
24325;SDS011;12448;45.532;5.290;2022-08-19T23:27:56;9.38;;;3.33;;
24325;SDS011;12448;45.532;5.290;2022-08-19T23:30:42;7.22;;;3.60;;
24325;SDS011;12448;45.532;5.290;2022-08-19T23:33:15;7.97;;;2.88;;
24325;SDS011;12448;45.532;5.290;2022-08-19T23:35:49;7.82;;;3.20;;
24325;SDS011;12448;45.532;5.290;2022-08-19T23:38:20;7.20;;;3.20;;
24325;SDS011;12448;45.532;5.290;2022-08-19T23:40:47;5.32;;;3.08;;
24325;SDS011;12448;45.532;5.290;2022-08-19T23:43:17;4.90;;;2.92;;
24325;SDS011;12448;45.532;5.290;2022-08-19T23:45:43;3.50;;;2.75;;
24325;SDS011;12448;45.532;5.290;2022-08-19T23:48:09;5.28;;;2.97;;
24325;SDS011;12448;45.532;5.290;2022-08-19T23:50:35;5.35;;;2.90;;
24325;SDS011;12448;45.532;5.290;2022-08-19T23:53:02;4.75;;;3.20;;
24325;SDS011;12448;45.532;5.290;2022-08-19T23:55:29;4.00;;;3.03;;
24325;SDS011;12448;45.532;5.290;2022-08-19T23:57:56;5.35;;;3.42;;
